Flugplatz Illertissen

Für EDMI sind keine METAR/TAF Berichte vorhanden.
Es werden die Flugwettermeldungen vom Flugplatz Laupheim Airport in 16 km Entfernung angezeigt.

Bericht für ETHL

vom 15.10. um 07:20 UTC

Wind 5 kt aus 40°

Sichtweite 8000 m

gering bewölkt in 200 ft

Temperatur 9.0°C

Taupunkt 8.0°C

Luftfeuchtigkeit 93%

Luftdruck 1008 hPa

ETHL 150720Z 04005KT 8000 FEW002 09/08 Q1008 BLU+BLU+

Prognose für ETHL

vom 15.10. um 00:00 UTC

Zwischen 00:00 UTC und 00:00 UTC

Wind 5 kt aus 40°

Sichtweite 10 km oder mehr

keine signifikanten Wettererscheinungen

gering bewölkt in 25000 ft


Zwischen 00:00 und 00:00 UTC übergehend zu

Wind 10 kt aus 250° in Böen 20 kt

Sichtweite 10 km oder mehr

keine signifikanten Wettererscheinungen

aufgebrochene Bewölkung in 13000 ft

TAF ETHL 150722Z 1508/1517 04005KT 9999 NSW FEW250 BECMG 1511/1513 25010G20KT 9999 NSW BKN130
Impressum